Flight Track Log - Related Links

Times and Time Zones

All times are in EDT time to prevent confusion due to time zone crossing. See the ASQ4136 flight status page for this flight to view local times or setup timezone preferences in your user account.

Time Position Orientation Groundspeed Altitude Reporting Facility
EDT Latitude Longitude Course Direction KTS MPH feet Rate Location/Type
Wed 08:39:27 AM 29.9778 -95.3367 30° Northeast 164 189 700  Level Houston Center
Wed 08:40:41 AM 29.9983 -95.3994 291° West 225 259 2,700 1,543 Climbing Houston Center
Wed 08:41:12 AM 30.0217 -95.3878 23° Northeast 239 275 3,400 1,273 Climbing Houston Center
Wed 08:41:47 AM 30.0706 -95.3617 25° Northeast 277 319 4,100 787 Climbing Houston Center
Wed 08:42:00 AM 30.3262 -95.1949 14° North  Level FlightAware
Wed 08:42:13 AM 30.0889 -95.3533 21° North 260 299 4,200  Level Houston Center
Wed 08:42:49 AM 30.1406 -95.3244 26° Northeast 285 328 6,000 2,419 Climbing Houston Center
Wed 08:43:00 AM 30.4400 -95.1460 27° Northeast  Level FlightAware
Wed 08:43:15 AM 30.1606 -95.3144 23° Northeast 280 322 6,700  Level Houston Center
Wed 08:43:50 AM 30.2128 -95.2867 25° Northeast 285 328 8,500 2,903 Climbing Houston Center
Wed 08:44:00 AM 30.5495 -95.0892 30° Northeast  Level FlightAware
Wed 08:44:17 AM 30.2486 -95.2694 23° Northeast 287 330 9,700  Level Houston Center
Wed 08:45:18 AM 30.3292 -95.2258 25° Northeast 316 364 10,000 146 Climbing Houston Center
Wed 08:46:20 AM 30.4222 -95.1775 24° Northeast 360 414 10,000 293 Level Houston Center
Wed 08:47:21 AM 30.5186 -95.1189 28° Northeast 367 422 10,600 1,220 Climbing Houston Center
Wed 08:48:23 AM 30.6086 -95.0631 28° Northeast 366 421 12,500 1,500 Climbing Houston Center
Wed 08:49:25 AM 30.6981 -95.0078 28° Northeast 363 418 13,700 1,073 Climbing Houston Center
Wed 08:50:26 AM 30.7914 -94.9494 28° Northeast 378 435 14,700 976 Climbing Houston Center
Wed 08:51:28 AM 30.8883 -94.8883 28° Northeast 394 453 15,700 1,210 Climbing Houston Center
Wed 08:52:30 AM 30.9858 -94.8283 28° Northeast 397 457 17,200 1,230 Climbing Houston Center
Wed 08:53:30 AM 31.0956 -94.7594 28° Northeast 394 453 18,200 1,000 Climbing Fort Center
Wed 08:54:30 AM 31.1967 -94.6936 29° Northeast 407 468 19,200 1,000 Climbing Fort Center
Wed 08:55:30 AM 31.2994 -94.6247 30° Northeast 407 468 20,200 1,000 Climbing Fort Center
Wed 08:56:30 AM 31.4042 -94.5511 31° Northeast 412 474 21,200 1,000 Climbing Fort Center
Wed 08:57:30 AM 31.5111 -94.4772 30° Northeast 424 488 22,200 1,000 Climbing Fort Center
Wed 08:58:30 AM 31.6158 -94.4056 30° Northeast 424 488 23,200 1,000 Climbing Fort Center
Wed 08:59:30 AM 31.7206 -94.3314 31° Northeast 434 499 24,200 1,000 Climbing Fort Center
Wed 09:00:30 AM 31.8253 -94.2592 30° Northeast 439 505 25,200 1,000 Climbing Fort Center
Wed 09:01:30 AM 31.9339 -94.1822 31° Northeast 439 505 26,200 1,000 Climbing Fort Center
Wed 09:02:30 AM 32.0406 -94.1072 31° Northeast 439 505 27,200 1,000 Climbing Fort Center
Wed 09:03:30 AM 32.1472 -94.0322 31° Northeast 439 505 28,200 1,000 Climbing Fort Center
Wed 09:04:30 AM 32.2514 -93.9522 33° Northeast 439 505 29,200 1,000 Climbing Fort Center
Wed 09:05:30 AM 32.3558 -93.8769 31° Northeast 439 505 30,200 1,000 Climbing Fort Center
Wed 09:06:30 AM 32.4622 -93.8014 31° Northeast 439 505 31,200 1,000 Climbing Fort Center
Wed 09:07:30 AM 32.5686 -93.7281 30° Northeast 439 505 32,200 900 Climbing Fort Center
Wed 09:08:30 AM 32.6789 -93.6497 31° Northeast 444 511 33,000 400 Climbing Fort Center
Wed 09:09:30 AM 32.7933 -93.5683 31° Northeast 456 525 33,000  Level Fort Center
Wed 09:10:30 AM 32.9078 -93.4867 31° Northeast 461 531 33,000 350 Level Fort Center
Wed 09:11:30 AM 33.0222 -93.4047 31° Northeast 466 536 33,700 800 Climbing Fort Center
Wed 09:12:30 AM 33.1364 -93.3228 31° Northeast 471 542 34,600 650 Climbing Fort Center
Wed 09:13:30 AM 33.2506 -93.2406 31° Northeast 476 548 35,000 131 Climbing Fort Center
Wed 09:15:33 AM 33.4711 -93.0792 31° Northeast 494 568 35,000  Level Memphis Center
Wed 09:16:33 AM 33.5856 -92.9956 31° Northeast 494 568 35,000  Level Memphis Center
Wed 09:17:33 AM 33.7022 -92.9139 30° Northeast 482 555 35,000  Level Memphis Center
Wed 09:18:33 AM 33.8164 -92.8300 31° Northeast 476 548 35,000  Level Memphis Center
Wed 09:19:33 AM 33.9331 -92.7431 32° Northeast 476 548 35,000  Level Memphis Center
Wed 09:20:33 AM 34.0494 -92.6586 31° Northeast 481 554 35,000  Level Memphis Center
Wed 09:21:33 AM 34.1742 -92.5564 34° Northeast 481 554 35,000  Level Memphis Center
Wed 09:22:33 AM 34.2928 -92.4689 31° Northeast 492 566 35,000  Level Memphis Center
Wed 09:23:33 AM 34.4131 -92.3814 31° Northeast 497 572 35,000  Level Memphis Center
Wed 09:24:33 AM 34.5333 -92.2883 33° Northeast 503 579 35,000  Level Memphis Center
Wed 09:25:33 AM 34.6517 -92.1975 32° Northeast 503 579 35,000  Level Memphis Center
Wed 09:26:33 AM 34.7533 -92.0836 43° Northeast 503 579 35,000  Level Memphis Center
Wed 09:27:33 AM 34.8533 -91.9539 47° Northeast 503 579 35,000  Level Memphis Center
Wed 09:28:33 AM 34.9572 -91.8217 46° Northeast 515 593 35,000  Level Memphis Center
Wed 09:29:33 AM 35.0586 -91.6939 46° Northeast 520 598 35,000  Level Memphis Center
Wed 09:30:33 AM 35.1558 -91.5633 48° Northeast 520 598 35,000  Level Memphis Center
Wed 09:31:33 AM 35.2572 -91.4328 46° Northeast 520 598 35,000  Level Memphis Center
Wed 09:32:33 AM 35.3606 -91.3017 46° Northeast 520 598 35,000  Level Memphis Center
Wed 09:33:33 AM 35.4531 -91.1856 46° Northeast 520 598 35,000  Level Memphis Center
Wed 09:34:33 AM 35.5561 -91.0486 47° Northeast 528 608 35,000  Level Memphis Center
Wed 09:35:33 AM 35.6569 -90.9167 47° Northeast 533 613 35,000  Level Memphis Center
Wed 09:36:33 AM 35.7575 -90.7714 50° Northeast 518 596 35,000  Level Memphis Center
Wed 09:37:33 AM 35.8603 -90.6386 46° Northeast 518 596 35,000  Level Memphis Center
Wed 09:38:33 AM 35.9667 -90.5031 46° Northeast 523 602 35,000  Level Memphis Center
Wed 09:39:33 AM 36.0628 -90.3672 49° Northeast 528 608 35,000  Level Memphis Center
Wed 09:40:33 AM 36.1669 -90.2311 47° Northeast 528 608 35,000  Level Memphis Center
Wed 09:41:33 AM 36.2667 -90.0944 48° Northeast 528 608 35,000  Level Memphis Center
Wed 09:42:33 AM 36.3664 -89.9628 47° Northeast 528 608 35,000  Level Memphis Center
Wed 09:43:33 AM 36.4681 -89.8253 47° Northeast 528 608 35,000  Level Memphis Center
Wed 09:44:33 AM 36.5694 -89.6878 47° Northeast 528 608 35,000  Level Memphis Center
Wed 09:45:33 AM 36.6708 -89.5497 47° Northeast 528 608 35,000  Level Memphis Center
Wed 09:46:33 AM 36.7700 -89.4117 48° Northeast 528 608 35,000  Level Memphis Center
Wed 09:47:33 AM 36.8708 -89.2728 48° Northeast 528 608 35,000  Level Memphis Center
Wed 09:48:33 AM 36.9594 -89.1497 48° Northeast 528 608 35,000  Level Memphis Center
Wed 09:49:33 AM 37.0600 -89.0103 48° Northeast 528 608 35,000  Level Memphis Center
Wed 09:50:33 AM 37.1583 -88.8708 48° Northeast 528 608 35,000  Level Memphis Center
Wed 09:51:33 AM 37.2586 -88.7333 47° Northeast 528 608 35,000  Level Memphis Center
Wed 09:52:33 AM 37.3589 -88.5903 49° Northeast 533 613 35,000  Level Memphis Center
Wed 09:54:48 AM 37.5744 -88.2725 49° Northeast 547 629 35,000  Level Indianapolis Center
Wed 09:55:50 AM 37.6894 -88.1078 49° Northeast 545 627 35,000  Level Indianapolis Center
Wed 09:56:52 AM 37.7914 -87.9481 51° Northeast 544 626 35,000  Level Indianapolis Center
Wed 09:57:54 AM 37.8603 -87.7761 63° Northeast 545 627 35,000  Level Indianapolis Center
Wed 09:58:56 AM 37.9292 -87.6022 63° Northeast 549 632 35,000  Level Indianapolis Center
Wed 09:59:58 AM 37.9975 -87.4297 63° Northeast 548 631 35,000  Level Indianapolis Center
Wed 10:01:00 AM 38.0644 -87.2569 64° Northeast 547 629 35,000  Level Indianapolis Center
Wed 10:02:02 AM 38.1425 -87.0550 64° Northeast 539 620 35,000  Level Indianapolis Center
Wed 10:03:04 AM 38.2072 -86.8886 64° Northeast 538 619 35,000 -484 Level Indianapolis Center
Wed 10:04:06 AM 38.2706 -86.7214 64° Northeast 531 611 34,000 -968 Descending Indianapolis Center
Wed 10:05:08 AM 38.3336 -86.5553 64° Northeast 523 602 33,000 -968 Descending Indianapolis Center
Wed 10:06:10 AM 38.3975 -86.3878 64° Northeast 524 603 32,000 -919 Descending Indianapolis Center
Wed 10:07:12 AM 38.4608 -86.2167 65° Northeast 531 611 31,100 -484 Descending Indianapolis Center
Wed 10:08:14 AM 38.5375 -86.0131 64° Northeast 530 610 31,000 -48 Descending Indianapolis Center
Wed 10:09:16 AM 38.6011 -85.8431 64° Northeast 529 609 31,000  Level Indianapolis Center
Wed 10:10:18 AM 38.6594 -85.6856 65° Northeast 533 613 31,000  Level Indianapolis Center
Wed 10:11:20 AM 38.7322 -85.4858 65° Northeast 529 609 31,000  Level Indianapolis Center
Wed 10:12:22 AM 38.7953 -85.3136 65° Northeast 531 611 31,000  Level Indianapolis Center
Wed 10:13:24 AM 38.8581 -85.1417 65° Northeast 532 612 31,000 -339 Level Indianapolis Center
Wed 10:14:26 AM 38.9194 -84.9681 66° East 532 612 30,300 -1,210 Descending Indianapolis Center
Wed 10:15:28 AM 38.9872 -84.7803 65° Northeast 517 595 28,500 -1,694 Descending Indianapolis Center
Wed 10:16:30 AM 39.0619 -84.6192 59° Northeast 520 598 26,800 -1,220 Descending Indianapolis Center
Wed 10:17:31 AM 39.1492 -84.4628 54° Northeast 530 610 26,000 -878 Descending Indianapolis Center
Wed 10:18:33 AM 39.2336 -84.3061 55° Northeast 528 608 25,000 -1,210 Descending Indianapolis Center
Wed 10:19:35 AM 39.3128 -84.1503 57° Northeast 517 595 23,500 -1,452 Descending Indianapolis Center
Wed 10:20:37 AM 39.3711 -83.9978 64° Northeast 470 541 22,000 -1,839 Descending Indianapolis Center
Wed 10:21:39 AM 39.4297 -83.8439 64° Northeast 475 547 19,700 -2,177 Descending Indianapolis Center
Wed 10:22:41 AM 39.4856 -83.6981 64° Northeast 455 524 17,500 -2,506 Descending Indianapolis Center
Wed 10:22:58 AM 39.5092 -83.6383 63° Northeast 447 514 16,400 -3,194 Descending Indianapolis Center
Wed 10:23:43 AM 39.5489 -83.5281 65° Northeast 449 517 14,200 -2,894 Descending Indianapolis Center
Wed 10:24:23 AM 39.5844 -83.4419 62° Northeast 433 498 12,300 -2,710 Descending Indianapolis Center
Wed 10:24:45 AM 39.6064 -83.3933 60° Northeast 432 497 11,400 -1,229 Descending Indianapolis Center
Wed 10:25:46 AM 39.6786 -83.2750 52° Northeast 420 483 10,600 -830 Descending Indianapolis Center
Wed 10:26:19 AM 39.7183 -83.2086 52° Northeast 414 476 10,100 -581 Descending Indianapolis Center
Wed 10:26:48 AM 39.7486 -83.1578 52° Northeast 413 475 10,000  Descending Indianapolis Center
Wed 10:27:19 AM 39.7914 -83.0897 51° Northeast 404 465 10,100  Climbing Indianapolis Center
Wed 10:27:50 AM 39.8161 -83.0492 52° Northeast 388 447 10,000 -109 Descending Indianapolis Center
Wed 10:28:14 AM 39.8456 -83.0008 52° Northeast 376 433 10,000 -1,161 Level Indianapolis Center
Wed 10:28:52 AM 39.8856 -82.9333 52° Northeast 337 388 8,800 -1,636 Descending Indianapolis Center
Wed 10:29:09 AM 39.8978 -82.9119 53° Northeast 323 372 8,500 -1,645 Descending Indianapolis Center
Wed 10:29:54 AM 39.9097 -82.8250 80° East 314 361 7,100 -1,900 Descending Indianapolis Center
Wed 10:30:09 AM 39.9075 -82.7961 96° East 293 337 6,600 -1,672 Descending Indianapolis Center
Wed 10:30:55 AM 39.9033 -82.7189 94° East 295 339 5,400 -1,475 Descending Indianapolis Center
Wed 10:31:10 AM 39.9019 -82.6922 94° East 282 325 5,100 -774 Descending Indianapolis Center
Wed 10:31:57 AM 39.8983 -82.6217 94° East 275 316 4,600 -606 Descending Indianapolis Center
Wed 10:32:59 AM 39.9403 -82.5619 47° Northeast 270 311 4,000 -290 Descending Indianapolis Center
Wed 10:34:01 AM 39.9856 -82.5992 328° Northwest 227 261 4,000  Level Indianapolis Center
Wed 10:35:02 AM 39.9883 -82.6556 274° West 168 193 4,000 -156 Level Indianapolis Center
Wed 10:35:18 AM 39.9908 -82.6775 278° West 152 175 3,800 -677 Descending Indianapolis Center
Wed 10:36:04 AM 39.9919 -82.7122 272° West 158 182 3,300 -689 Descending Indianapolis Center
Wed 10:36:19 AM 39.9933 -82.7322 275° West 153 176 3,100 -800 Descending Indianapolis Center

Login

Don't have an account? Register now (free) for customized features, flight alerts, and more!